sensor_id;sensor_type;location;lat;lon;timestamp;temperature;humidity
56256;DHT22;57229;51.432;-2.598;2022-08-19T00:01:22;23.30;83.50
56256;DHT22;57229;51.432;-2.598;2022-08-19T00:03:49;23.30;83.50
56256;DHT22;57229;51.432;-2.598;2022-08-19T00:06:17;23.30;83.90
56256;DHT22;57229;51.432;-2.598;2022-08-19T00:08:43;23.30;83.90
56256;DHT22;57229;51.432;-2.598;2022-08-19T00:11:10;23.30;83.70
56256;DHT22;57229;51.432;-2.598;2022-08-19T00:13:36;23.30;83.70
56256;DHT22;57229;51.432;-2.598;2022-08-19T00:16:03;23.30;83.70
56256;DHT22;57229;51.432;-2.598;2022-08-19T00:18:31;23.30;83.80
56256;DHT22;57229;51.432;-2.598;2022-08-19T00:20:58;23.30;83.50
56256;DHT22;57229;51.432;-2.598;2022-08-19T00:23:25;23.30;83.80
56256;DHT22;57229;51.432;-2.598;2022-08-19T00:25:51;23.30;83.80
56256;DHT22;57229;51.432;-2.598;2022-08-19T00:28:18;23.30;83.80
56256;DHT22;57229;51.432;-2.598;2022-08-19T00:30:44;23.30;83.80
56256;DHT22;57229;51.432;-2.598;2022-08-19T00:33:10;23.30;83.80
56256;DHT22;57229;51.432;-2.598;2022-08-19T00:35:35;23.20;83.80
56256;DHT22;57229;51.432;-2.598;2022-08-19T00:38:04;23.30;84.10
56256;DHT22;57229;51.432;-2.598;2022-08-19T00:40:33;23.20;83.80
56256;DHT22;57229;51.432;-2.598;2022-08-19T00:43:00;23.30;84.30
56256;DHT22;57229;51.432;-2.598;2022-08-19T00:45:27;23.20;84.10
56256;DHT22;57229;51.432;-2.598;2022-08-19T00:47:56;23.20;84.20
56256;DHT22;57229;51.432;-2.598;2022-08-19T00:50:22;23.20;83.80
56256;DHT22;57229;51.432;-2.598;2022-08-19T00:52:50;23.20;83.80
56256;DHT22;57229;51.432;-2.598;2022-08-19T00:55:20;23.20;83.80
56256;DHT22;57229;51.432;-2.598;2022-08-19T00:57:55;23.20;83.80
56256;DHT22;57229;51.432;-2.598;2022-08-19T01:00:23;23.20;83.80
56256;DHT22;57229;51.432;-2.598;2022-08-19T01:02:49;23.20;84.10
56256;DHT22;57229;51.432;-2.598;2022-08-19T01:05:18;23.20;84.40
56256;DHT22;57229;51.432;-2.598;2022-08-19T01:07:45;23.20;84.50
56256;DHT22;57229;51.432;-2.598;2022-08-19T01:10:15;23.10;84.00
56256;DHT22;57229;51.432;-2.598;2022-08-19T01:12:41;23.20;84.20
56256;DHT22;57229;51.432;-2.598;2022-08-19T01:15:10;23.20;84.10
56256;DHT22;57229;51.432;-2.598;2022-08-19T01:17:38;23.20;83.70
56256;DHT22;57229;51.432;-2.598;2022-08-19T01:20:07;23.20;84.30
56256;DHT22;57229;51.432;-2.598;2022-08-19T01:22:45;23.20;83.80
56256;DHT22;57229;51.432;-2.598;2022-08-19T01:25:13;23.20;83.80
56256;DHT22;57229;51.432;-2.598;2022-08-19T01:27:41;23.10;83.40
56256;DHT22;57229;51.432;-2.598;2022-08-19T01:30:11;23.20;83.80
56256;DHT22;57229;51.432;-2.598;2022-08-19T01:32:37;23.10;83.80
56256;DHT22;57229;51.432;-2.598;2022-08-19T01:35:04;23.10;83.30
56256;DHT22;57229;51.432;-2.598;2022-08-19T01:37:30;23.10;83.70
56256;DHT22;57229;51.432;-2.598;2022-08-19T01:39:56;23.10;83.50
56256;DHT22;57229;51.432;-2.598;2022-08-19T01:42:22;23.10;83.30
56256;DHT22;57229;51.432;-2.598;2022-08-19T01:44:48;23.10;83.20
56256;DHT22;57229;51.432;-2.598;2022-08-19T01:47:14;23.10;83.50
56256;DHT22;57229;51.432;-2.598;2022-08-19T01:49:40;23.10;83.20
56256;DHT22;57229;51.432;-2.598;2022-08-19T01:52:06;23.10;83.20
56256;DHT22;57229;51.432;-2.598;2022-08-19T01:54:32;23.10;83.30
56256;DHT22;57229;51.432;-2.598;2022-08-19T01:57:03;23.10;83.20
56256;DHT22;57229;51.432;-2.598;2022-08-19T01:59:30;23.10;83.20
56256;DHT22;57229;51.432;-2.598;2022-08-19T02:01:57;23.10;83.10
56256;DHT22;57229;51.432;-2.598;2022-08-19T02:04:23;23.10;83.10
56256;DHT22;57229;51.432;-2.598;2022-08-19T02:06:50;23.10;83.20
56256;DHT22;57229;51.432;-2.598;2022-08-19T02:09:16;23.10;83.10
56256;DHT22;57229;51.432;-2.598;2022-08-19T02:11:42;23.10;83.10
56256;DHT22;57229;51.432;-2.598;2022-08-19T02:14:08;23.10;83.10
56256;DHT22;57229;51.432;-2.598;2022-08-19T02:16:35;23.10;83.00
56256;DHT22;57229;51.432;-2.598;2022-08-19T02:19:02;23.10;83.10
56256;DHT22;57229;51.432;-2.598;2022-08-19T02:21:29;23.10;83.10
56256;DHT22;57229;51.432;-2.598;2022-08-19T02:23:55;23.10;83.10
56256;DHT22;57229;51.432;-2.598;2022-08-19T02:26:21;23.10;83.00
56256;DHT22;57229;51.432;-2.598;2022-08-19T02:28:47;23.10;83.00
56256;DHT22;57229;51.432;-2.598;2022-08-19T02:31:17;23.10;83.00
56256;DHT22;57229;51.432;-2.598;2022-08-19T02:33:44;23.10;83.00
56256;DHT22;57229;51.432;-2.598;2022-08-19T02:36:11;23.10;83.10
56256;DHT22;57229;51.432;-2.598;2022-08-19T02:38:38;23.10;83.00
56256;DHT22;57229;51.432;-2.598;2022-08-19T02:41:15;23.10;83.00
56256;DHT22;57229;51.432;-2.598;2022-08-19T02:43:41;23.10;83.00
56256;DHT22;57229;51.432;-2.598;2022-08-19T02:46:21;23.10;83.00
56256;DHT22;57229;51.432;-2.598;2022-08-19T02:48:52;23.10;83.00
56256;DHT22;57229;51.432;-2.598;2022-08-19T02:51:21;23.00;82.90
56256;DHT22;57229;51.432;-2.598;2022-08-19T02:53:47;23.00;82.90
56256;DHT22;57229;51.432;-2.598;2022-08-19T02:56:14;23.10;83.00
56256;DHT22;57229;51.432;-2.598;2022-08-19T02:58:41;23.00;83.00
56256;DHT22;57229;51.432;-2.598;2022-08-19T03:01:07;23.00;83.00
56256;DHT22;57229;51.432;-2.598;2022-08-19T03:03:33;23.00;83.00
56256;DHT22;57229;51.432;-2.598;2022-08-19T03:06:11;23.00;83.00
56256;DHT22;57229;51.432;-2.598;2022-08-19T03:08:40;23.00;83.00
56256;DHT22;57229;51.432;-2.598;2022-08-19T03:11:06;23.00;83.00
56256;DHT22;57229;51.432;-2.598;2022-08-19T03:13:37;23.00;83.00
56256;DHT22;57229;51.432;-2.598;2022-08-19T03:16:05;23.00;83.00
56256;DHT22;57229;51.432;-2.598;2022-08-19T03:18:31;23.00;83.00
56256;DHT22;57229;51.432;-2.598;2022-08-19T03:20:56;23.00;83.00
56256;DHT22;57229;51.432;-2.598;2022-08-19T03:23:23;23.00;83.00
56256;DHT22;57229;51.432;-2.598;2022-08-19T03:25:50;23.00;83.00
56256;DHT22;57229;51.432;-2.598;2022-08-19T03:28:16;23.00;83.00
56256;DHT22;57229;51.432;-2.598;2022-08-19T03:30:44;23.00;83.00
56256;DHT22;57229;51.432;-2.598;2022-08-19T03:33:21;23.00;83.00
56256;DHT22;57229;51.432;-2.598;2022-08-19T03:35:47;23.00;83.00
56256;DHT22;57229;51.432;-2.598;2022-08-19T03:38:13;23.00;83.00
56256;DHT22;57229;51.432;-2.598;2022-08-19T03:40:39;23.00;83.00
56256;DHT22;57229;51.432;-2.598;2022-08-19T03:43:04;23.00;83.00
56256;DHT22;57229;51.432;-2.598;2022-08-19T03:45:31;23.00;83.00
56256;DHT22;57229;51.432;-2.598;2022-08-19T03:47:56;23.00;83.00
56256;DHT22;57229;51.432;-2.598;2022-08-19T03:50:22;23.00;83.00
56256;DHT22;57229;51.432;-2.598;2022-08-19T03:52:50;22.90;82.90
56256;DHT22;57229;51.432;-2.598;2022-08-19T03:55:17;22.90;82.90
56256;DHT22;57229;51.432;-2.598;2022-08-19T03:57:43;22.90;82.90
56256;DHT22;57229;51.432;-2.598;2022-08-19T04:00:11;22.90;82.90
56256;DHT22;57229;51.432;-2.598;2022-08-19T04:02:37;22.90;83.00
56256;DHT22;57229;51.432;-2.598;2022-08-19T04:05:03;22.90;82.90
56256;DHT22;57229;51.432;-2.598;2022-08-19T04:07:28;22.90;82.90
56256;DHT22;57229;51.432;-2.598;2022-08-19T04:09:54;22.90;82.90
56256;DHT22;57229;51.432;-2.598;2022-08-19T04:12:20;22.90;82.90
56256;DHT22;57229;51.432;-2.598;2022-08-19T04:14:46;22.90;82.90
56256;DHT22;57229;51.432;-2.598;2022-08-19T04:17:12;22.90;82.90
56256;DHT22;57229;51.432;-2.598;2022-08-19T04:19:39;22.90;82.90
56256;DHT22;57229;51.432;-2.598;2022-08-19T04:22:05;22.90;83.60
56256;DHT22;57229;51.432;-2.598;2022-08-19T04:24:34;22.90;82.90
56256;DHT22;57229;51.432;-2.598;2022-08-19T04:27:01;22.90;83.00
56256;DHT22;57229;51.432;-2.598;2022-08-19T04:29:28;22.90;83.00
56256;DHT22;57229;51.432;-2.598;2022-08-19T04:31:56;22.90;83.00
56256;DHT22;57229;51.432;-2.598;2022-08-19T04:34:25;22.90;83.00
56256;DHT22;57229;51.432;-2.598;2022-08-19T04:36:52;22.90;83.00
56256;DHT22;57229;51.432;-2.598;2022-08-19T04:39:22;22.80;82.90
56256;DHT22;57229;51.432;-2.598;2022-08-19T04:42:08;22.90;83.00
56256;DHT22;57229;51.432;-2.598;2022-08-19T04:44:52;22.90;83.00
56256;DHT22;57229;51.432;-2.598;2022-08-19T04:47:18;22.80;82.90
56256;DHT22;57229;51.432;-2.598;2022-08-19T04:49:44;22.80;82.90
56256;DHT22;57229;51.432;-2.598;2022-08-19T04:52:09;22.80;83.00
56256;DHT22;57229;51.432;-2.598;2022-08-19T04:54:35;22.80;82.90
56256;DHT22;57229;51.432;-2.598;2022-08-19T04:57:01;22.80;83.00
56256;DHT22;57229;51.432;-2.598;2022-08-19T04:59:27;22.80;82.90
56256;DHT22;57229;51.432;-2.598;2022-08-19T05:01:53;22.80;82.90
56256;DHT22;57229;51.432;-2.598;2022-08-19T05:04:19;22.80;83.00
56256;DHT22;57229;51.432;-2.598;2022-08-19T05:06:49;22.80;82.90
56256;DHT22;57229;51.432;-2.598;2022-08-19T05:09:15;22.80;83.00
56256;DHT22;57229;51.432;-2.598;2022-08-19T05:11:42;22.80;83.00
56256;DHT22;57229;51.432;-2.598;2022-08-19T05:14:09;22.70;82.90
56256;DHT22;57229;51.432;-2.598;2022-08-19T05:16:36;22.70;83.00
56256;DHT22;57229;51.432;-2.598;2022-08-19T05:19:02;22.70;82.90
56256;DHT22;57229;51.432;-2.598;2022-08-19T05:21:46;22.70;83.00
56256;DHT22;57229;51.432;-2.598;2022-08-19T05:24:30;22.70;82.90
56256;DHT22;57229;51.432;-2.598;2022-08-19T05:27:00;22.70;82.90
56256;DHT22;57229;51.432;-2.598;2022-08-19T05:29:28;22.70;83.00
56256;DHT22;57229;51.432;-2.598;2022-08-19T05:31:55;22.70;83.00
56256;DHT22;57229;51.432;-2.598;2022-08-19T05:34:23;22.70;83.00
56256;DHT22;57229;51.432;-2.598;2022-08-19T05:36:54;22.70;83.00
56256;DHT22;57229;51.432;-2.598;2022-08-19T05:39:22;22.70;83.00
56256;DHT22;57229;51.432;-2.598;2022-08-19T05:41:54;22.70;83.00
56256;DHT22;57229;51.432;-2.598;2022-08-19T05:44:27;22.70;83.00
56256;DHT22;57229;51.432;-2.598;2022-08-19T05:46:57;22.70;83.00
56256;DHT22;57229;51.432;-2.598;2022-08-19T05:49:23;22.70;83.00
56256;DHT22;57229;51.432;-2.598;2022-08-19T05:51:51;22.70;83.50
56256;DHT22;57229;51.432;-2.598;2022-08-19T05:54:18;22.70;83.50
56256;DHT22;57229;51.432;-2.598;2022-08-19T05:56:45;22.70;83.50
56256;DHT22;57229;51.432;-2.598;2022-08-19T05:59:14;22.60;83.30
56256;DHT22;57229;51.432;-2.598;2022-08-19T06:01:42;22.60;83.30
56256;DHT22;57229;51.432;-2.598;2022-08-19T06:04:08;22.60;83.20
56256;DHT22;57229;51.432;-2.598;2022-08-19T06:06:35;22.60;83.20
56256;DHT22;57229;51.432;-2.598;2022-08-19T06:09:05;22.60;83.50
56256;DHT22;57229;51.432;-2.598;2022-08-19T06:11:44;22.60;83.20
56256;DHT22;57229;51.432;-2.598;2022-08-19T06:14:18;22.60;83.20
56256;DHT22;57229;51.432;-2.598;2022-08-19T06:16:45;22.60;83.10
56256;DHT22;57229;51.432;-2.598;2022-08-19T06:19:13;22.60;83.10
56256;DHT22;57229;51.432;-2.598;2022-08-19T06:21:41;22.60;83.10
56256;DHT22;57229;51.432;-2.598;2022-08-19T06:24:12;22.60;83.10
56256;DHT22;57229;51.432;-2.598;2022-08-19T06:26:40;22.60;83.10
56256;DHT22;57229;51.432;-2.598;2022-08-19T06:29:08;22.60;83.10
56256;DHT22;57229;51.432;-2.598;2022-08-19T06:31:35;22.60;83.00
56256;DHT22;57229;51.432;-2.598;2022-08-19T06:34:03;22.60;83.00
56256;DHT22;57229;51.432;-2.598;2022-08-19T06:36:32;22.60;83.00
56256;DHT22;57229;51.432;-2.598;2022-08-19T06:39:00;22.60;83.00
56256;DHT22;57229;51.432;-2.598;2022-08-19T06:41:27;22.60;83.00
56256;DHT22;57229;51.432;-2.598;2022-08-19T06:43:54;22.60;83.00
56256;DHT22;57229;51.432;-2.598;2022-08-19T06:46:20;22.60;83.00
56256;DHT22;57229;51.432;-2.598;2022-08-19T06:48:47;22.60;83.00
56256;DHT22;57229;51.432;-2.598;2022-08-19T06:51:17;22.60;83.00
56256;DHT22;57229;51.432;-2.598;2022-08-19T06:53:50;22.60;83.00
56256;DHT22;57229;51.432;-2.598;2022-08-19T06:56:19;22.60;83.00
56256;DHT22;57229;51.432;-2.598;2022-08-19T06:58:46;22.60;83.00
56256;DHT22;57229;51.432;-2.598;2022-08-19T07:01:13;22.60;83.00
56256;DHT22;57229;51.432;-2.598;2022-08-19T07:03:39;22.60;83.00
56256;DHT22;57229;51.432;-2.598;2022-08-19T07:06:06;22.60;83.00
56256;DHT22;57229;51.432;-2.598;2022-08-19T07:08:34;22.60;83.00
56256;DHT22;57229;51.432;-2.598;2022-08-19T07:11:05;22.60;83.60
56256;DHT22;57229;51.432;-2.598;2022-08-19T07:13:33;22.60;82.90
56256;DHT22;57229;51.432;-2.598;2022-08-19T07:16:06;22.60;82.90
56256;DHT22;57229;51.432;-2.598;2022-08-19T07:18:33;22.60;82.90
56256;DHT22;57229;51.432;-2.598;2022-08-19T07:21:07;22.60;82.90
56256;DHT22;57229;51.432;-2.598;2022-08-19T07:23:33;22.60;82.90
56256;DHT22;57229;51.432;-2.598;2022-08-19T07:26:08;22.60;82.90
56256;DHT22;57229;51.432;-2.598;2022-08-19T07:28:34;22.60;82.90
56256;DHT22;57229;51.432;-2.598;2022-08-19T07:31:00;22.60;82.90
56256;DHT22;57229;51.432;-2.598;2022-08-19T07:33:27;22.60;82.90
56256;DHT22;57229;51.432;-2.598;2022-08-19T07:35:55;22.50;82.90
56256;DHT22;57229;51.432;-2.598;2022-08-19T07:38:21;22.60;83.00
56256;DHT22;57229;51.432;-2.598;2022-08-19T07:40:46;22.60;82.90
56256;DHT22;57229;51.432;-2.598;2022-08-19T07:43:12;22.60;82.90
56256;DHT22;57229;51.432;-2.598;2022-08-19T07:45:38;22.60;82.90
56256;DHT22;57229;51.432;-2.598;2022-08-19T07:48:04;22.60;82.90
56256;DHT22;57229;51.432;-2.598;2022-08-19T07:50:30;22.60;82.90
56256;DHT22;57229;51.432;-2.598;2022-08-19T07:52:55;22.60;82.90
56256;DHT22;57229;51.432;-2.598;2022-08-19T07:55:24;22.60;82.90
56256;DHT22;57229;51.432;-2.598;2022-08-19T07:57:50;22.60;82.80
56256;DHT22;57229;51.432;-2.598;2022-08-19T08:00:18;22.60;82.90
56256;DHT22;57229;51.432;-2.598;2022-08-19T08:02:43;22.60;82.80
56256;DHT22;57229;51.432;-2.598;2022-08-19T08:05:10;22.60;82.80
56256;DHT22;57229;51.432;-2.598;2022-08-19T08:07:54;22.60;82.80
56256;DHT22;57229;51.432;-2.598;2022-08-19T08:10:39;22.60;82.80
56256;DHT22;57229;51.432;-2.598;2022-08-19T08:13:04;22.60;82.70
56256;DHT22;57229;51.432;-2.598;2022-08-19T08:15:30;22.60;82.80
56256;DHT22;57229;51.432;-2.598;2022-08-19T08:17:56;22.60;82.80
56256;DHT22;57229;51.432;-2.598;2022-08-19T08:20:23;22.60;82.80
56256;DHT22;57229;51.432;-2.598;2022-08-19T08:22:49;22.60;82.70
56256;DHT22;57229;51.432;-2.598;2022-08-19T08:25:34;22.60;82.70
56256;DHT22;57229;51.432;-2.598;2022-08-19T08:28:01;22.60;82.70
56256;DHT22;57229;51.432;-2.598;2022-08-19T08:30:28;22.60;82.70
56256;DHT22;57229;51.432;-2.598;2022-08-19T08:32:54;22.60;82.60
56256;DHT22;57229;51.432;-2.598;2022-08-19T08:35:22;22.60;82.70
56256;DHT22;57229;51.432;-2.598;2022-08-19T08:37:50;22.60;82.60
56256;DHT22;57229;51.432;-2.598;2022-08-19T08:40:30;22.60;82.60
56256;DHT22;57229;51.432;-2.598;2022-08-19T08:43:28;22.60;82.60
56256;DHT22;57229;51.432;-2.598;2022-08-19T08:46:11;22.60;82.60
56256;DHT22;57229;51.432;-2.598;2022-08-19T08:48:49;22.60;82.50
56256;DHT22;57229;51.432;-2.598;2022-08-19T08:51:22;22.60;82.60
56256;DHT22;57229;51.432;-2.598;2022-08-19T08:53:53;22.70;82.50
56256;DHT22;57229;51.432;-2.598;2022-08-19T08:56:19;22.70;82.50
56256;DHT22;57229;51.432;-2.598;2022-08-19T08:59:03;22.70;83.20
56256;DHT22;57229;51.432;-2.598;2022-08-19T09:01:32;22.70;82.50
56256;DHT22;57229;51.432;-2.598;2022-08-19T09:03:58;22.70;82.40
56256;DHT22;57229;51.432;-2.598;2022-08-19T09:06:37;22.70;82.40
56256;DHT22;57229;51.432;-2.598;2022-08-19T09:12:14;22.70;82.40
56256;DHT22;57229;51.432;-2.598;2022-08-19T09:17:13;22.70;82.20
56256;DHT22;57229;51.432;-2.598;2022-08-19T09:19:54;22.70;82.30
56256;DHT22;57229;51.432;-2.598;2022-08-19T09:22:21;22.70;82.20
56256;DHT22;57229;51.432;-2.598;2022-08-19T09:24:49;22.80;82.30
56256;DHT22;57229;51.432;-2.598;2022-08-19T09:27:15;22.80;82.20
56256;DHT22;57229;51.432;-2.598;2022-08-19T09:29:41;22.80;82.20
56256;DHT22;57229;51.432;-2.598;2022-08-19T09:32:07;22.80;82.20
56256;DHT22;57229;51.432;-2.598;2022-08-19T09:34:33;22.90;82.10
56256;DHT22;57229;51.432;-2.598;2022-08-19T09:36:58;22.90;82.70
56256;DHT22;57229;51.432;-2.598;2022-08-19T09:39:25;22.90;82.00
56256;DHT22;57229;51.432;-2.598;2022-08-19T09:41:51;22.90;81.80
56256;DHT22;57229;51.432;-2.598;2022-08-19T09:44:18;23.00;81.90
56256;DHT22;57229;51.432;-2.598;2022-08-19T09:46:45;23.00;81.90
56256;DHT22;57229;51.432;-2.598;2022-08-19T09:49:16;23.00;81.60
56256;DHT22;57229;51.432;-2.598;2022-08-19T09:51:49;23.10;81.50
56256;DHT22;57229;51.432;-2.598;2022-08-19T09:54:15;23.10;81.20
56256;DHT22;57229;51.432;-2.598;2022-08-19T09:56:40;23.10;81.00
56256;DHT22;57229;51.432;-2.598;2022-08-19T09:59:06;23.20;81.10
56256;DHT22;57229;51.432;-2.598;2022-08-19T10:01:33;23.10;80.80
56256;DHT22;57229;51.432;-2.598;2022-08-19T10:04:00;23.20;80.80
56256;DHT22;57229;51.432;-2.598;2022-08-19T10:06:29;23.20;81.60
56256;DHT22;57229;51.432;-2.598;2022-08-19T10:08:58;23.20;80.90
56256;DHT22;57229;51.432;-2.598;2022-08-19T10:11:24;23.20;80.80
56256;DHT22;57229;51.432;-2.598;2022-08-19T10:13:50;23.20;80.70
56256;DHT22;57229;51.432;-2.598;2022-08-19T10:16:19;23.20;80.60
56256;DHT22;57229;51.432;-2.598;2022-08-19T10:18:45;23.20;80.70
56256;DHT22;57229;51.432;-2.598;2022-08-19T10:21:24;23.20;80.70
56256;DHT22;57229;51.432;-2.598;2022-08-19T10:23:53;23.20;80.60
56256;DHT22;57229;51.432;-2.598;2022-08-19T10:26:23;23.10;80.70
56256;DHT22;57229;51.432;-2.598;2022-08-19T10:28:49;23.10;80.90
56256;DHT22;57229;51.432;-2.598;2022-08-19T10:31:22;23.10;81.00
56256;DHT22;57229;51.432;-2.598;2022-08-19T10:33:49;23.10;80.80
56256;DHT22;57229;51.432;-2.598;2022-08-19T10:36:19;23.10;80.90
56256;DHT22;57229;51.432;-2.598;2022-08-19T10:38:46;23.10;80.90
56256;DHT22;57229;51.432;-2.598;2022-08-19T10:41:24;23.10;81.00
56256;DHT22;57229;51.432;-2.598;2022-08-19T10:43:58;23.10;80.80
56256;DHT22;57229;51.432;-2.598;2022-08-19T10:46:26;23.20;80.80
56256;DHT22;57229;51.432;-2.598;2022-08-19T10:48:53;23.30;80.70
56256;DHT22;57229;51.432;-2.598;2022-08-19T10:51:20;23.40;80.20
56256;DHT22;57229;51.432;-2.598;2022-08-19T10:54:04;23.70;79.70
56256;DHT22;57229;51.432;-2.598;2022-08-19T10:56:30;24.10;78.70
56256;DHT22;57229;51.432;-2.598;2022-08-19T10:59:17;24.50;77.80
56256;DHT22;57229;51.432;-2.598;2022-08-19T11:01:45;24.90;76.70
56256;DHT22;57229;51.432;-2.598;2022-08-19T11:04:11;25.30;75.80
56256;DHT22;57229;51.432;-2.598;2022-08-19T11:06:40;25.50;75.20
56256;DHT22;57229;51.432;-2.598;2022-08-19T11:09:06;25.70;74.80
56256;DHT22;57229;51.432;-2.598;2022-08-19T11:11:33;25.80;74.40
56256;DHT22;57229;51.432;-2.598;2022-08-19T11:14:04;25.90;74.10
56256;DHT22;57229;51.432;-2.598;2022-08-19T11:16:30;26.00;73.90
56256;DHT22;57229;51.432;-2.598;2022-08-19T11:18:58;26.00;73.60
56256;DHT22;57229;51.432;-2.598;2022-08-19T11:21:30;26.00;73.50
56256;DHT22;57229;51.432;-2.598;2022-08-19T11:24:18;26.10;73.50
56256;DHT22;57229;51.432;-2.598;2022-08-19T11:26:46;26.10;73.40
56256;DHT22;57229;51.432;-2.598;2022-08-19T11:29:15;26.10;73.40
56256;DHT22;57229;51.432;-2.598;2022-08-19T11:31:45;26.00;73.50
56256;DHT22;57229;51.432;-2.598;2022-08-19T11:34:15;25.90;73.60
56256;DHT22;57229;51.432;-2.598;2022-08-19T11:36:43;25.80;74.00
56256;DHT22;57229;51.432;-2.598;2022-08-19T11:39:11;25.80;74.00
56256;DHT22;57229;51.432;-2.598;2022-08-19T11:41:37;25.90;73.80
56256;DHT22;57229;51.432;-2.598;2022-08-19T11:44:03;25.90;74.40
56256;DHT22;57229;51.432;-2.598;2022-08-19T11:46:30;25.90;73.80
56256;DHT22;57229;51.432;-2.598;2022-08-19T11:48:57;25.90;73.90
56256;DHT22;57229;51.432;-2.598;2022-08-19T11:51:24;25.80;74.00
56256;DHT22;57229;51.432;-2.598;2022-08-19T11:53:51;25.80;74.30
56256;DHT22;57229;51.432;-2.598;2022-08-19T11:56:18;25.60;74.40
56256;DHT22;57229;51.432;-2.598;2022-08-19T11:58:44;25.40;74.70
56256;DHT22;57229;51.432;-2.598;2022-08-19T12:01:15;25.30;75.20
56256;DHT22;57229;51.432;-2.598;2022-08-19T12:03:42;25.10;75.60
56256;DHT22;57229;51.432;-2.598;2022-08-19T12:06:13;24.90;75.90
56256;DHT22;57229;51.432;-2.598;2022-08-19T12:08:41;24.80;76.30
56256;DHT22;57229;51.432;-2.598;2022-08-19T12:11:07;24.60;76.70
56256;DHT22;57229;51.432;-2.598;2022-08-19T12:13:34;24.50;77.00
56256;DHT22;57229;51.432;-2.598;2022-08-19T12:16:00;24.50;77.20
56256;DHT22;57229;51.432;-2.598;2022-08-19T12:18:32;24.40;77.50
56256;DHT22;57229;51.432;-2.598;2022-08-19T12:20:58;24.30;77.70
56256;DHT22;57229;51.432;-2.598;2022-08-19T12:23:25;24.30;78.60
56256;DHT22;57229;51.432;-2.598;2022-08-19T12:25:51;24.20;78.10
56256;DHT22;57229;51.432;-2.598;2022-08-19T12:28:22;24.30;78.20
56256;DHT22;57229;51.432;-2.598;2022-08-19T12:30:48;24.30;78.30
56256;DHT22;57229;51.432;-2.598;2022-08-19T12:33:15;24.30;78.30
56256;DHT22;57229;51.432;-2.598;2022-08-19T12:35:42;24.30;78.30
56256;DHT22;57229;51.432;-2.598;2022-08-19T12:38:10;24.30;78.20
56256;DHT22;57229;51.432;-2.598;2022-08-19T12:40:36;24.30;78.30
56256;DHT22;57229;51.432;-2.598;2022-08-19T12:43:02;24.30;78.30
56256;DHT22;57229;51.432;-2.598;2022-08-19T12:45:28;24.30;78.30
56256;DHT22;57229;51.432;-2.598;2022-08-19T12:47:54;24.30;78.30
56256;DHT22;57229;51.432;-2.598;2022-08-19T12:50:19;24.30;78.30
56256;DHT22;57229;51.432;-2.598;2022-08-19T12:52:47;24.30;78.40
56256;DHT22;57229;51.432;-2.598;2022-08-19T12:55:13;24.30;78.50
56256;DHT22;57229;51.432;-2.598;2022-08-19T12:57:40;24.30;78.50
56256;DHT22;57229;51.432;-2.598;2022-08-19T13:00:12;24.30;78.60
56256;DHT22;57229;51.432;-2.598;2022-08-19T13:02:39;24.30;78.60
56256;DHT22;57229;51.432;-2.598;2022-08-19T13:05:10;24.30;78.60
56256;DHT22;57229;51.432;-2.598;2022-08-19T13:07:38;24.30;78.60
56256;DHT22;57229;51.432;-2.598;2022-08-19T13:10:05;24.30;78.60
56256;DHT22;57229;51.432;-2.598;2022-08-19T13:12:31;24.30;78.50
56256;DHT22;57229;51.432;-2.598;2022-08-19T13:14:57;24.30;78.50
56256;DHT22;57229;51.432;-2.598;2022-08-19T13:17:22;24.40;78.50
56256;DHT22;57229;51.432;-2.598;2022-08-19T13:19:48;24.30;78.60
56256;DHT22;57229;51.432;-2.598;2022-08-19T13:22:15;24.30;78.50
56256;DHT22;57229;51.432;-2.598;2022-08-19T13:24:41;24.40;78.60
56256;DHT22;57229;51.432;-2.598;2022-08-19T13:27:07;24.40;78.50
56256;DHT22;57229;51.432;-2.598;2022-08-19T13:29:32;24.40;78.60
56256;DHT22;57229;51.432;-2.598;2022-08-19T13:32:17;24.40;78.60
56256;DHT22;57229;51.432;-2.598;2022-08-19T13:35:02;24.40;78.70
56256;DHT22;57229;51.432;-2.598;2022-08-19T13:37:28;24.40;78.60
56256;DHT22;57229;51.432;-2.598;2022-08-19T13:40:12;24.40;78.70
56256;DHT22;57229;51.432;-2.598;2022-08-19T13:42:44;24.40;78.70
56256;DHT22;57229;51.432;-2.598;2022-08-19T13:45:12;24.40;78.70
56256;DHT22;57229;51.432;-2.598;2022-08-19T13:47:39;24.40;78.60
56256;DHT22;57229;51.432;-2.598;2022-08-19T13:50:09;24.40;78.60
56256;DHT22;57229;51.432;-2.598;2022-08-19T13:52:36;24.40;78.60
56256;DHT22;57229;51.432;-2.598;2022-08-19T13:55:02;24.40;78.60
56256;DHT22;57229;51.432;-2.598;2022-08-19T13:57:30;24.50;78.60
56256;DHT22;57229;51.432;-2.598;2022-08-19T13:59:57;24.50;78.40
56256;DHT22;57229;51.432;-2.598;2022-08-19T14:02:23;24.50;78.50
56256;DHT22;57229;51.432;-2.598;2022-08-19T14:04:49;24.50;78.50
56256;DHT22;57229;51.432;-2.598;2022-08-19T14:07:15;24.50;78.60
56256;DHT22;57229;51.432;-2.598;2022-08-19T14:09:41;24.50;78.60
56256;DHT22;57229;51.432;-2.598;2022-08-19T14:12:07;24.50;78.50
56256;DHT22;57229;51.432;-2.598;2022-08-19T14:14:37;24.50;78.60
56256;DHT22;57229;51.432;-2.598;2022-08-19T14:17:06;24.60;78.50
56256;DHT22;57229;51.432;-2.598;2022-08-19T14:19:31;24.60;78.60
56256;DHT22;57229;51.432;-2.598;2022-08-19T14:21:57;24.60;78.60
56256;DHT22;57229;51.432;-2.598;2022-08-19T14:24:23;24.60;78.50
56256;DHT22;57229;51.432;-2.598;2022-08-19T14:26:48;24.60;78.40
56256;DHT22;57229;51.432;-2.598;2022-08-19T14:29:14;24.60;78.50
56256;DHT22;57229;51.432;-2.598;2022-08-19T14:31:40;24.60;78.50
56256;DHT22;57229;51.432;-2.598;2022-08-19T14:34:07;24.60;78.50
56256;DHT22;57229;51.432;-2.598;2022-08-19T14:36:35;24.60;78.50
56256;DHT22;57229;51.432;-2.598;2022-08-19T14:39:01;24.70;78.50
56256;DHT22;57229;51.432;-2.598;2022-08-19T14:41:27;24.60;78.50
56256;DHT22;57229;51.432;-2.598;2022-08-19T14:43:54;24.70;78.60
56256;DHT22;57229;51.432;-2.598;2022-08-19T14:46:23;24.70;78.60
56256;DHT22;57229;51.432;-2.598;2022-08-19T14:48:50;24.60;78.50
56256;DHT22;57229;51.432;-2.598;2022-08-19T14:51:17;24.70;78.40
56256;DHT22;57229;51.432;-2.598;2022-08-19T14:53:43;24.70;78.50
56256;DHT22;57229;51.432;-2.598;2022-08-19T14:56:12;24.70;78.50
56256;DHT22;57229;51.432;-2.598;2022-08-19T14:58:39;24.70;78.50
56256;DHT22;57229;51.432;-2.598;2022-08-19T15:01:09;24.70;78.50
56256;DHT22;57229;51.432;-2.598;2022-08-19T15:03:35;24.70;78.50
56256;DHT22;57229;51.432;-2.598;2022-08-19T15:06:03;24.70;78.50
56256;DHT22;57229;51.432;-2.598;2022-08-19T15:08:30;24.70;78.50
56256;DHT22;57229;51.432;-2.598;2022-08-19T15:10:57;24.70;78.50
56256;DHT22;57229;51.432;-2.598;2022-08-19T15:13:24;24.70;78.60
56256;DHT22;57229;51.432;-2.598;2022-08-19T15:15:50;24.70;78.50
56256;DHT22;57229;51.432;-2.598;2022-08-19T15:18:17;24.70;78.60
56256;DHT22;57229;51.432;-2.598;2022-08-19T15:20:43;24.70;78.50
56256;DHT22;57229;51.432;-2.598;2022-08-19T15:23:13;24.70;78.60
56256;DHT22;57229;51.432;-2.598;2022-08-19T15:28:38;24.70;78.50
56256;DHT22;57229;51.432;-2.598;2022-08-19T15:31:04;24.70;78.50